Time;durP1;ratioP1;P1;durP2;ratioP2;P2;SDS_P1;SDS_P2;PMS_P1;PMS_P2;Temp;Humidity;BMP_temperature;BMP_pressure;BME280_temperature;BME280_humidity;BME280_pressure;Samples;Min_cycle;Max_cycle;Signal;HPM_P1;HPM_P2
2023/09/12 00:02:32;;;;;;;4.38;2.90;;;29.90;69.50;;;;;;10519519;28;20079;-34
2023/09/12 00:07:35;;;;;;;4.10;3.15;;;29.90;69.70;;;;;;10511267;28;21219;-32
2023/09/12 00:12:39;;;;;;;3.55;2.65;;;29.80;69.80;;;;;;10498996;28;20602;-32
2023/09/12 00:17:42;;;;;;;2.80;2.50;;;29.80;70.00;;;;;;10496423;28;20053;-35
2023/09/12 00:22:44;;;;;;;3.05;2.38;;;29.80;70.20;;;;;;10489101;28;20129;-39
2023/09/12 00:27:48;;;;;;;3.60;2.95;;;29.80;70.30;;;;;;10495694;28;20172;-32
2023/09/12 00:32:50;;;;;;;3.75;2.33;;;29.80;70.40;;;;;;10494602;28;20482;-32
2023/09/12 00:37:52;;;;;;;2.88;2.00;;;29.80;70.60;;;;;;10494972;28;20052;-37
2023/09/12 00:42:56;;;;;;;4.70;2.67;;;29.70;70.70;;;;;;10503518;28;20080;-34
2023/09/12 00:48:00;;;;;;;4.10;2.33;;;29.70;70.80;;;;;;10492462;28;20064;-34
2023/09/12 00:53:04;;;;;;;2.13;1.88;;;29.70;70.80;;;;;;10491031;28;20119;-33
2023/09/12 00:58:08;;;;;;;2.35;2.13;;;29.60;70.80;;;;;;10492388;28;20055;-34
2023/09/12 01:03:10;;;;;;;3.15;1.85;;;29.70;70.80;;;;;;10495121;28;20044;-33
2023/09/12 01:08:12;;;;;;;2.97;2.05;;;29.60;70.60;;;;;;10498909;28;20052;-34
2023/09/12 01:13:15;;;;;;;2.63;1.85;;;29.60;70.60;;;;;;10509749;28;20562;-33
2023/09/12 01:18:17;;;;;;;2.83;1.60;;;29.60;70.40;;;;;;10485470;28;20579;-38
2023/09/12 01:23:35;;;;;;;1.45;1.35;;;29.60;70.30;;;;;;10486753;28;20051;-34
2023/09/12 01:28:43;;;;;;;2.30;1.50;;;29.50;70.20;;;;;;10491410;28;20049;-39
2023/09/12 01:33:45;;;;;;;1.73;1.40;;;29.50;70.00;;;;;;10492503;28;20056;-31
2023/09/12 01:38:47;;;;;;;2.08;1.40;;;29.50;69.90;;;;;;10487747;28;20087;-31
2023/09/12 01:43:51;;;;;;;2.00;1.67;;;29.50;69.90;;;;;;10511924;28;20056;-36
2023/09/12 01:48:56;;;;;;;2.03;1.45;;;29.50;69.80;;;;;;10490557;28;20110;-35
2023/09/12 01:53:59;;;;;;;1.63;1.42;;;29.40;69.70;;;;;;10507604;28;20117;-32
2023/09/12 01:59:03;;;;;;;1.50;1.40;;;29.40;69.60;;;;;;10479886;28;20130;-35
2023/09/12 02:04:08;;;;;;;3.35;1.70;;;29.40;69.60;;;;;;10488783;28;20680;-35
2023/09/12 02:09:10;;;;;;;2.42;2.22;;;29.40;69.50;;;;;;10505448;28;20443;-33
2023/09/12 02:14:13;;;;;;;5.40;1.85;;;29.40;69.50;;;;;;10489085;28;20461;-34
2023/09/12 02:19:15;;;;;;;3.72;1.85;;;29.40;69.40;;;;;;10490426;28;20485;-33
2023/09/12 02:24:18;;;;;;;2.40;2.00;;;29.40;69.50;;;;;;10500084;28;20079;-31
2023/09/12 02:29:21;;;;;;;2.85;1.65;;;29.40;69.40;;;;;;10497003;28;20150;-33
2023/09/12 02:34:23;;;;;;;3.25;1.90;;;29.30;69.30;;;;;;10493851;28;20048;-39
2023/09/12 02:39:25;;;;;;;6.63;2.45;;;29.30;69.30;;;;;;10488959;28;20048;-33
2023/09/12 02:44:28;;;;;;;3.08;2.28;;;29.30;69.30;;;;;;10500705;28;20105;-35
2023/09/12 02:49:30;;;;;;;5.35;2.10;;;29.30;69.30;;;;;;10473260;28;20540;-32
2023/09/12 02:54:32;;;;;;;3.60;2.22;;;29.30;69.20;;;;;;10489899;28;20056;-34
2023/09/12 02:59:35;;;;;;;5.80;2.88;;;29.20;69.20;;;;;;10513072;28;20094;-35
2023/09/12 03:04:37;;;;;;;4.88;2.50;;;29.20;69.40;;;;;;10490637;28;20484;-30
2023/09/12 03:15:29;;;;;;;4.82;2.80;;;29.10;69.20;;;;;;10478282;27;2319393;-32
2023/09/12 03:20:31;;;;;;;3.92;2.80;;;29.10;69.70;;;;;;10513133;28;20040;-31
2023/09/12 03:25:37;;;;;;;3.30;2.22;;;29.10;69.60;;;;;;10518716;28;20405;-34
2023/09/12 03:30:40;;;;;;;3.30;2.20;;;29.10;69.50;;;;;;10530871;28;20044;-38
2023/09/12 03:35:44;;;;;;;3.03;2.55;;;29.10;69.50;;;;;;10507166;28;20458;-34
2023/09/12 03:40:47;;;;;;;5.10;3.08;;;29.10;69.40;;;;;;10520146;28;20045;-38
2023/09/12 03:45:50;;;;;;;3.30;2.60;;;29.10;69.50;;;;;;10531335;28;20079;-34
2023/09/12 03:50:52;;;;;;;4.32;2.55;;;29.10;69.60;;;;;;10532284;28;20184;-36
2023/09/12 03:55:54;;;;;;;5.50;2.33;;;29.10;69.60;;;;;;10531736;28;20544;-36
2023/09/12 04:00:57;;;;;;;4.43;2.85;;;29.00;69.60;;;;;;10534587;28;20056;-32
2023/09/12 04:05:59;;;;;;;5.40;2.92;;;29.10;69.60;;;;;;10531682;28;20134;-35
2023/09/12 04:11:01;;;;;;;3.22;2.80;;;29.10;69.60;;;;;;10518410;28;20431;-32
2023/09/12 04:16:04;;;;;;;3.80;2.60;;;29.10;69.70;;;;;;10518030;28;20491;-33
2023/09/12 04:21:06;;;;;;;5.13;3.25;;;29.00;69.60;;;;;;10519824;28;20142;-30
2023/09/12 04:26:08;;;;;;;4.28;2.42;;;29.10;69.70;;;;;;10493509;28;20043;-33
2023/09/12 04:31:11;;;;;;;4.15;2.85;;;29.00;69.70;;;;;;10476394;28;20056;-37
2023/09/12 04:36:13;;;;;;;3.63;2.50;;;29.00;69.80;;;;;;10488329;28;20044;-36
2023/09/12 04:41:16;;;;;;;4.07;2.55;;;29.00;69.80;;;;;;10490111;28;20082;-36
2023/09/12 04:46:20;;;;;;;4.70;2.58;;;29.00;69.90;;;;;;10483591;28;20052;-33
2023/09/12 04:51:21;;;;;;;3.58;2.47;;;29.00;69.90;;;;;;10486815;28;20490;-33
2023/09/12 04:56:24;;;;;;;4.18;2.47;;;29.00;69.90;;;;;;10482718;28;20455;-34
2023/09/12 05:01:27;;;;;;;3.35;2.65;;;29.00;70.00;;;;;;10480607;28;20037;-34
2023/09/12 05:06:29;;;;;;;6.00;2.88;;;29.00;70.10;;;;;;10487658;28;20072;-33
2023/09/12 05:11:31;;;;;;;5.68;3.17;;;29.00;70.20;;;;;;10478981;28;20099;-32
2023/09/12 05:16:34;;;;;;;7.45;3.15;;;28.90;70.10;;;;;;10484761;28;20132;-37
2023/09/12 05:21:36;;;;;;;4.65;3.17;;;28.90;70.30;;;;;;10477929;28;20072;-37
2023/09/12 05:26:38;;;;;;;4.47;2.90;;;29.00;70.50;;;;;;10493358;28;20063;-33
2023/09/12 05:31:41;;;;;;;3.97;2.78;;;28.90;70.30;;;;;;10479605;28;20058;-33
2023/09/12 05:36:43;;;;;;;7.05;3.10;;;28.90;70.60;;;;;;10484562;28;20053;-35
2023/09/12 05:41:44;;;;;;;4.28;2.30;;;28.80;70.50;;;;;;10489175;28;20044;-28
2023/09/12 05:46:48;;;;;;;6.90;3.22;;;28.90;70.60;;;;;;10489369;28;20136;-35
2023/09/12 05:51:51;;;;;;;4.80;2.55;;;28.90;70.60;;;;;;10478094;28;20539;-34
2023/09/12 05:56:53;;;;;;;5.47;2.78;;;28.90;70.60;;;;;;10482301;28;20100;-32
2023/09/12 06:01:57;;;;;;;5.45;2.70;;;28.90;70.80;;;;;;10484686;28;20434;-32
2023/09/12 06:06:59;;;;;;;7.40;3.10;;;28.80;70.80;;;;;;10483933;28;20045;-33
2023/09/12 06:12:01;;;;;;;3.97;2.67;;;28.80;70.80;;;;;;10468671;28;20045;-34
2023/09/12 06:17:04;;;;;;;3.70;2.58;;;28.80;70.80;;;;;;10484622;28;20098;-34
2023/09/12 06:22:06;;;;;;;5.68;3.00;;;28.80;70.80;;;;;;10468816;28;20103;-34
2023/09/12 06:27:08;;;;;;;9.30;2.58;;;28.80;70.80;;;;;;10487901;28;20132;-35
2023/09/12 06:32:11;;;;;;;7.65;2.45;;;28.80;70.80;;;;;;10486325;28;20669;-34
2023/09/12 06:37:13;;;;;;;4.90;2.33;;;28.80;70.80;;;;;;10495192;28;20082;-34
2023/09/12 06:42:15;;;;;;;4.80;2.50;;;28.80;70.80;;;;;;10489293;28;20055;-32
2023/09/12 06:47:18;;;;;;;7.00;2.70;;;28.80;70.80;;;;;;10480201;28;20094;-34
2023/09/12 06:52:20;;;;;;;5.13;2.20;;;28.80;70.70;;;;;;10458183;28;20231;-41
2023/09/12 06:57:22;;;;;;;5.68;2.35;;;28.80;70.70;;;;;;10475110;28;20048;-36
2023/09/12 07:02:27;;;;;;;4.63;2.60;;;28.90;70.80;;;;;;10475549;28;20485;-34
2023/09/12 07:07:29;;;;;;;5.40;2.17;;;28.90;70.70;;;;;;10504950;28;20752;-35
2023/09/12 07:12:32;;;;;;;2.63;2.03;;;28.90;70.60;;;;;;10479017;28;20044;-32
2023/09/12 07:17:35;;;;;;;6.15;2.08;;;28.90;70.50;;;;;;10463003;28;20406;-32
2023/09/12 07:22:37;;;;;;;6.93;2.42;;;28.80;70.50;;;;;;10484689;28;20056;-32
2023/09/12 07:27:39;;;;;;;5.05;2.38;;;28.70;71.10;;;;;;10498816;28;20076;-34
2023/09/12 07:32:42;;;;;;;4.50;2.25;;;28.40;72.80;;;;;;10464399;28;20044;-37
2023/09/12 07:37:44;;;;;;;4.15;2.63;;;28.70;71.30;;;;;;10487715;28;20127;-38
2023/09/12 07:42:46;;;;;;;3.53;2.17;;;28.70;71.00;;;;;;10473741;28;20048;-35
2023/09/12 07:47:50;;;;;;;4.22;2.70;;;28.80;70.80;;;;;;10488679;28;20067;-32
2023/09/12 07:52:51;;;;;;;4.28;2.60;;;28.80;70.70;;;;;;10496019;28;20090;-33
2023/09/12 07:57:53;;;;;;;4.30;2.83;;;28.80;70.90;;;;;;10488934;28;20142;-35
2023/09/12 08:02:56;;;;;;;15.45;9.20;;;28.80;70.70;;;;;;10483099;28;20094;-35
2023/09/12 08:07:58;;;;;;;5.07;3.25;;;28.60;71.30;;;;;;10495519;28;20507;-39
2023/09/12 08:13:00;;;;;;;5.60;2.78;;;28.70;71.50;;;;;;10476628;28;20059;-38
2023/09/12 08:18:04;;;;;;;5.18;2.75;;;28.80;70.70;;;;;;10489977;28;20140;-31
2023/09/12 08:23:05;;;;;;;4.78;3.33;;;28.90;70.50;;;;;;10489009;28;20049;-31
2023/09/12 08:28:07;;;;;;;4.53;3.00;;;28.80;70.70;;;;;;10501036;28;20123;-36
2023/09/12 08:33:10;;;;;;;5.00;3.17;;;28.80;70.80;;;;;;10490842;28;20059;-33
2023/09/12 08:38:12;;;;;;;4.40;3.30;;;28.90;70.10;;;;;;10500267;28;20135;-34
2023/09/12 08:43:15;;;;;;;8.15;5.22;;;29.00;69.90;;;;;;10484225;28;20063;-35
2023/09/12 08:48:19;;;;;;;16.33;8.73;;;28.20;75.50;;;;;;10488900;28;20083;-35
2023/09/12 08:53:22;;;;;;;6.75;4.40;;;27.90;75.20;;;;;;10488833;28;20083;-31
2023/09/12 08:58:24;;;;;;;4.13;3.25;;;27.80;76.50;;;;;;10493479;28;20048;-34
2023/09/12 09:03:28;;;;;;;5.05;2.90;;;27.60;77.40;;;;;;10492402;28;20075;-36
2023/09/12 09:08:32;;;;;;;15.88;6.35;;;28.20;74.80;;;;;;10499501;28;20132;-45
2023/09/12 09:13:34;;;;;;;12.20;6.30;;;27.90;75.70;;;;;;10510083;28;20110;-37
2023/09/12 09:18:51;;;;;;;4.53;2.83;;;28.50;72.90;;;;;;10483962;28;20064;-37
2023/09/12 09:23:54;;;;;;;7.80;4.65;;;28.60;72.40;;;;;;10478233;28;20044;-38
2023/09/12 09:29:06;;;;;;;5.68;3.15;;;27.40;78.20;;;;;;10498973;28;20447;-33
2023/09/12 09:34:14;;;;;;;12.60;7.38;;;28.40;73.40;;;;;;10481158;28;20135;-40
2023/09/12 09:39:18;;;;;;;6.20;3.80;;;27.70;77.80;;;;;;10507657;28;20503;-37
2023/09/12 09:44:22;;;;;;;23.50;11.40;;;27.30;80.20;;;;;;10471787;28;20064;-35
2023/09/12 09:49:25;;;;;;;7.05;3.47;;;27.40;83.80;;;;;;10483578;28;20047;-36
2023/09/12 09:54:28;;;;;;;11.85;6.78;;;28.30;74.90;;;;;;10473117;28;20122;-36
2023/09/12 09:59:30;;;;;;;6.57;2.72;;;27.40;81.10;;;;;;10468231;28;20114;-32
2023/09/12 10:04:36;;;;;;;6.55;3.00;;;28.00;77.80;;;;;;10489350;28;20402;-31
2023/09/12 10:09:38;;;;;;;14.48;7.03;;;27.70;78.50;;;;;;10496879;28;20036;-35
2023/09/12 10:14:41;;;;;;;18.65;6.28;;;26.70;86.50;;;;;;10489310;28;20060;-34
2023/09/12 10:19:52;;;;;;;6.00;3.30;;;26.30;90.00;;;;;;10492165;28;20298;-37
2023/09/12 10:24:57;;;;;;;14.50;5.72;;;27.30;83.40;;;;;;10492937;28;20049;-34
2023/09/12 10:29:59;;;;;;;4.38;3.03;;;27.50;81.60;;;;;;10489454;28;20076;-34
2023/09/12 10:35:04;;;;;;;8.35;4.07;;;28.20;76.20;;;;;;10484468;28;20045;-33
2023/09/12 10:40:08;;;;;;;10.40;3.58;;;28.70;72.80;;;;;;10471031;28;20056;-32
2023/09/12 10:45:11;;;;;;;4.57;3.22;;;28.20;75.70;;;;;;10488598;28;20075;-34
2023/09/12 10:50:15;;;;;;;9.50;4.57;;;28.30;74.80;;;;;;10479402;28;20126;-38
2023/09/12 10:55:19;;;;;;;18.40;8.95;;;28.10;76.90;;;;;;10482247;28;20084;-35
2023/09/12 11:00:20;;;;;;;13.93;5.57;;;27.20;82.90;;;;;;10473896;28;20075;-32
2023/09/12 11:05:53;;;;;;;10.48;6.00;;;27.60;80.60;;;;;;10481735;28;20070;-32
2023/09/12 11:11:19;;;;;;;5.72;3.10;;;27.60;79.40;;;;;;10480401;28;20041;-38
2023/09/12 11:16:21;;;;;;;5.70;2.38;;;27.80;78.50;;;;;;10474520;28;20504;-32
2023/09/12 11:21:34;;;;;;;4.45;2.30;;;27.70;78.80;;;;;;10476243;28;20075;-34
2023/09/12 11:26:36;;;;;;;3.38;2.35;;;28.60;74.00;;;;;;10470870;28;20048;-33
2023/09/12 11:31:41;;;;;;;2.72;2.03;;;29.10;71.20;;;;;;10487196;28;20544;-33
2023/09/12 11:36:47;;;;;;;4.97;3.05;;;28.80;72.30;;;;;;10471615;28;20056;-34
2023/09/12 11:41:49;;;;;;;8.52;3.63;;;28.80;72.00;;;;;;10479342;28;20048;-32
2023/09/12 11:46:51;;;;;;;11.15;5.35;;;27.40;81.60;;;;;;10489826;28;20102;-34
2023/09/12 11:51:55;;;;;;;4.80;2.22;;;27.80;80.30;;;;;;10483512;28;20048;-35
2023/09/12 11:56:59;;;;;;;4.82;2.20;;;27.90;80.30;;;;;;10480101;28;20048;-34
2023/09/12 12:02:01;;;;;;;7.68;3.67;;;27.70;81.00;;;;;;10503208;28;20040;-31
2023/09/12 12:07:05;;;;;;;11.48;5.10;;;27.80;82.80;;;;;;10492104;28;20090;-32
2023/09/12 12:12:11;;;;;;;10.82;5.30;;;27.70;81.60;;;;;;10486354;28;20509;-30
2023/09/12 12:17:13;;;;;;;12.20;6.07;;;26.90;87.90;;;;;;10481151;28;20478;-38
2023/09/12 12:22:17;;;;;;;14.68;6.10;;;27.20;86.90;;;;;;10487151;28;20049;-34
2023/09/12 12:27:18;;;;;;;3.85;2.10;;;27.30;84.50;;;;;;10498940;28;20122;-37
2023/09/12 12:32:20;;;;;;;10.63;3.30;;;28.70;75.50;;;;;;10501496;28;20141;-33
2023/09/12 12:37:30;;;;;;;10.00;5.00;;;28.20;78.60;;;;;;10491617;28;20056;-35
2023/09/12 12:42:41;;;;;;;9.07;4.60;;;27.70;85.20;;;;;;10509146;28;20078;-43
2023/09/12 12:47:44;;;;;;;3.90;2.60;;;27.50;87.60;;;;;;10481020;28;20055;-36
2023/09/12 12:52:48;;;;;;;7.55;2.60;;;28.20;80.80;;;;;;10473171;28;20048;-37
2023/09/12 12:57:50;;;;;;;4.25;1.85;;;27.40;84.20;;;;;;10486104;28;20044;-36
2023/09/12 13:02:52;;;;;;;11.20;5.60;;;29.10;74.10;;;;;;10486025;28;20048;-37
2023/09/12 13:07:56;;;;;;;9.27;4.68;;;26.80;90.30;;;;;;10477520;28;21310;-32
2023/09/12 13:12:57;;;;;;;9.63;4.20;;;27.30;86.10;;;;;;10484808;28;20139;-33
2023/09/12 13:17:59;;;;;;;5.65;3.00;;;28.10;79.90;;;;;;10482729;28;20056;-38
2023/09/12 13:23:02;;;;;;;5.43;2.28;;;27.20;86.60;;;;;;10479949;28;20045;-34
2023/09/12 13:28:05;;;;;;;5.40;3.08;;;28.70;77.60;;;;;;10474983;28;20124;-36
2023/09/12 13:33:07;;;;;;;7.40;5.03;;;27.60;86.40;;;;;;10488811;28;20387;-32
2023/09/12 13:38:10;;;;;;;15.80;4.75;;;27.60;83.80;;;;;;10475627;28;20140;-34
2023/09/12 13:43:12;;;;;;;7.45;2.28;;;27.90;82.30;;;;;;10489077;28;20582;-38
2023/09/12 13:48:14;;;;;;;10.77;5.53;;;28.20;82.70;;;;;;10482424;28;20068;-34
2023/09/12 13:53:17;;;;;;;6.05;2.22;;;28.20;81.20;;;;;;10481342;28;20052;-33
2023/09/12 13:58:19;;;;;;;7.30;1.92;;;28.10;80.50;;;;;;10471145;28;20144;-36
2023/09/12 14:03:21;;;;;;;12.85;4.97;;;29.20;74.20;;;;;;10483146;28;20541;-34
2023/09/12 14:08:24;;;;;;;9.43;5.55;;;28.20;78.80;;;;;;10472276;28;20398;-37
2023/09/12 14:13:26;;;;;;;12.63;5.78;;;27.50;85.20;;;;;;10472684;28;20053;-35
2023/09/12 14:18:28;;;;;;;6.00;3.80;;;28.30;78.30;;;;;;10477348;28;20064;-39
2023/09/12 14:23:31;;;;;;;15.85;5.13;;;27.70;82.70;;;;;;10467522;28;20135;-38
2023/09/12 14:28:34;;;;;;;3.28;1.95;;;27.70;83.90;;;;;;10477779;28;20094;-33
2023/09/12 14:33:36;;;;;;;4.20;2.85;;;28.50;79.70;;;;;;10484534;28;20510;-36
2023/09/12 14:38:39;;;;;;;7.70;4.93;;;28.70;78.10;;;;;;10483418;28;20113;-39
2023/09/12 14:43:41;;;;;;;4.22;2.30;;;29.10;73.90;;;;;;10488227;28;20116;-35
2023/09/12 14:48:44;;;;;;;11.60;5.53;;;28.10;81.70;;;;;;10487435;28;20139;-34
2023/09/12 14:53:48;;;;;;;7.57;3.15;;;28.50;79.10;;;;;;10483628;28;20049;-34
2023/09/12 14:58:50;;;;;;;7.00;1.65;;;28.80;78.40;;;;;;10488959;28;20106;-34
2023/09/12 15:03:52;;;;;;;3.53;1.75;;;29.20;75.50;;;;;;10486411;28;20040;-32
2023/09/12 15:08:55;;;;;;;3.72;2.97;;;29.50;73.60;;;;;;10483817;28;20535;-32
2023/09/12 15:13:57;;;;;;;2.85;1.75;;;29.30;73.10;;;;;;10469050;28;20049;-33
2023/09/12 15:18:59;;;;;;;4.07;2.45;;;29.60;72.50;;;;;;10486423;28;20044;-32
2023/09/12 15:24:03;;;;;;;3.42;2.47;;;29.80;71.20;;;;;;10478291;28;20081;-30
2023/09/12 15:29:07;;;;;;;2.97;1.80;;;29.50;73.40;;;;;;10484586;28;20049;-39
2023/09/12 15:34:09;;;;;;;3.60;1.67;;;29.80;71.50;;;;;;10511457;28;20092;-33
2023/09/12 15:39:12;;;;;;;2.90;1.60;;;29.70;72.10;;;;;;10483143;28;20049;-43
2023/09/12 15:44:14;;;;;;;1.90;1.63;;;30.00;70.70;;;;;;10490299;28;20083;-34
2023/09/12 15:49:16;;;;;;;7.55;4.53;;;30.20;69.60;;;;;;10479250;28;20074;-35
2023/09/12 15:54:20;;;;;;;3.13;1.52;;;29.90;68.50;;;;;;10467469;28;20070;-36
2023/09/12 15:59:21;;;;;;;1.35;1.23;;;29.60;70.80;;;;;;10477298;28;20095;-34
2023/09/12 16:04:24;;;;;;;5.03;1.70;;;30.40;68.10;;;;;;10480175;28;20657;-39
2023/09/12 16:09:27;;;;;;;3.28;1.92;;;30.40;67.70;;;;;;10491141;28;20145;-35
2023/09/12 16:14:29;;;;;;;6.00;2.05;;;30.50;67.40;;;;;;10476852;28;20052;-32
2023/09/12 16:19:31;;;;;;;2.40;1.90;;;30.10;68.30;;;;;;10485537;28;20207;-34
2023/09/12 16:24:34;;;;;;;5.43;1.35;;;30.50;66.60;;;;;;10488040;28;20069;-38
2023/09/12 16:29:36;;;;;;;4.00;1.40;;;30.60;66.20;;;;;;10488345;28;20071;-31
2023/09/12 16:34:38;;;;;;;4.10;1.60;;;30.60;66.10;;;;;;10479790;28;20124;-41
2023/09/12 16:39:42;;;;;;;2.28;1.50;;;30.60;65.60;;;;;;10487326;28;20080;-36
2023/09/12 16:44:43;;;;;;;2.13;1.40;;;30.50;65.60;;;;;;10471403;28;20060;-38
2023/09/12 16:49:46;;;;;;;7.63;2.33;;;30.60;65.40;;;;;;10488112;28;20080;-35
2023/09/12 16:54:50;;;;;;;3.35;1.90;;;30.50;65.00;;;;;;10489525;28;20131;-42
2023/09/12 16:59:51;;;;;;;4.13;1.63;;;30.60;65.10;;;;;;10478955;28;20157;-34
2023/09/12 17:04:53;;;;;;;3.00;1.67;;;30.50;65.00;;;;;;10477876;28;20135;-40
2023/09/12 17:09:57;;;;;;;3.03;1.80;;;30.50;64.80;;;;;;10488178;28;20052;-31
2023/09/12 17:14:59;;;;;;;5.85;1.88;;;30.50;64.90;;;;;;10488096;28;20056;-33
2023/09/12 17:20:01;;;;;;;5.38;1.75;;;30.50;65.20;;;;;;10491806;28;20080;-32
2023/09/12 17:25:04;;;;;;;3.50;1.60;;;30.40;65.30;;;;;;10495689;28;20090;-31
2023/09/12 17:30:08;;;;;;;4.10;2.08;;;30.50;65.50;;;;;;10497637;28;20091;-32
2023/09/12 17:35:10;;;;;;;2.78;1.73;;;30.50;65.70;;;;;;10499866;28;20071;-38
2023/09/12 17:40:13;;;;;;;4.53;1.77;;;30.20;66.30;;;;;;10496479;28;20764;-38
2023/09/12 17:45:15;;;;;;;3.13;1.75;;;30.30;66.30;;;;;;10492979;28;20094;-35
2023/09/12 17:50:17;;;;;;;4.70;2.33;;;30.30;66.50;;;;;;10498842;28;20071;-32
2023/09/12 17:55:22;;;;;;;2.65;1.55;;;30.20;66.70;;;;;;10498887;28;20063;-35
2023/09/12 18:00:27;;;;;;;2.95;1.70;;;30.30;66.50;;;;;;10481072;28;20086;-35
2023/09/12 18:05:29;;;;;;;2.20;1.42;;;30.30;66.60;;;;;;10479067;28;20132;-38
2023/09/12 18:10:32;;;;;;;4.38;1.67;;;30.30;66.70;;;;;;10486801;28;20143;-34
2023/09/12 18:15:45;;;;;;;2.78;1.70;;;30.30;66.90;;;;;;10487251;28;20064;-35
2023/09/12 18:20:47;;;;;;;4.57;1.80;;;30.30;67.00;;;;;;10493818;28;20421;-33
2023/09/12 18:25:51;;;;;;;3.25;1.67;;;30.30;67.20;;;;;;10496635;28;20071;-33
2023/09/12 18:30:53;;;;;;;4.43;1.60;;;30.20;67.20;;;;;;10489272;28;20041;-36
2023/09/12 18:35:56;;;;;;;3.08;1.85;;;30.20;67.30;;;;;;10490295;28;20052;-36
2023/09/12 18:40:59;;;;;;;3.40;1.80;;;30.20;67.40;;;;;;10482682;28;20079;-35
2023/09/12 18:46:02;;;;;;;2.42;1.77;;;30.20;67.50;;;;;;10488141;28;20143;-35
2023/09/12 18:51:04;;;;;;;3.05;1.50;;;30.10;67.50;;;;;;10481632;28;20044;-35
2023/09/12 18:56:07;;;;;;;9.32;1.80;;;30.10;67.50;;;;;;10479046;28;20040;-36
2023/09/12 19:01:09;;;;;;;2.50;1.50;;;30.20;67.60;;;;;;10474872;28;20044;-40
2023/09/12 19:06:13;;;;;;;3.22;1.70;;;30.10;67.60;;;;;;10489839;28;20628;-34
2023/09/12 19:11:19;;;;;;;2.75;1.77;;;30.10;67.70;;;;;;10483730;28;20546;-38
2023/09/12 19:16:21;;;;;;;6.25;2.08;;;30.10;67.80;;;;;;10479849;28;20059;-33
2023/09/12 19:21:23;;;;;;;6.82;2.08;;;30.10;67.80;;;;;;10472770;28;20173;-32
2023/09/12 19:26:26;;;;;;;5.20;1.92;;;30.00;67.90;;;;;;10474046;28;20484;-37
2023/09/12 19:31:28;;;;;;;11.30;2.35;;;30.00;68.00;;;;;;10477775;28;20071;-36
2023/09/12 19:36:30;;;;;;;10.23;2.13;;;30.00;68.00;;;;;;10486412;28;20056;-41
2023/09/12 19:41:33;;;;;;;3.63;1.90;;;30.00;68.10;;;;;;10481082;28;20067;-39
2023/09/12 19:46:39;;;;;;;3.28;1.75;;;30.00;68.20;;;;;;10477663;28;20124;-37
2023/09/12 19:51:43;;;;;;;8.45;1.80;;;30.00;68.20;;;;;;10476062;28;20489;-35
2023/09/12 19:56:47;;;;;;;4.18;1.73;;;30.00;68.20;;;;;;10476226;28;20054;-34
2023/09/12 20:01:49;;;;;;;5.07;1.80;;;29.90;68.20;;;;;;10493779;28;20512;-32
2023/09/12 20:06:51;;;;;;;4.35;1.40;;;29.90;68.20;;;;;;10483032;28;20057;-36
2023/09/12 20:11:54;;;;;;;2.45;1.58;;;29.90;68.30;;;;;;10482605;28;20080;-35
2023/09/12 20:16:56;;;;;;;3.95;2.10;;;29.90;68.30;;;;;;10485515;28;20417;-35
2023/09/12 20:21:58;;;;;;;7.95;1.88;;;29.80;68.30;;;;;;10494745;28;20068;-38
2023/09/12 20:27:01;;;;;;;4.45;1.75;;;29.80;68.30;;;;;;10486338;28;20084;-33
2023/09/12 20:32:03;;;;;;;6.57;1.95;;;29.80;68.30;;;;;;10490336;28;20043;-34
2023/09/12 20:37:06;;;;;;;5.15;2.38;;;29.80;68.30;;;;;;10485166;28;20105;-35
2023/09/12 20:42:09;;;;;;;3.35;1.92;;;29.80;68.80;;;;;;10474929;28;20056;-38
2023/09/12 20:47:11;;;;;;;9.27;2.10;;;29.80;68.40;;;;;;10481552;28;20080;-39
2023/09/12 20:52:13;;;;;;;5.03;1.80;;;29.70;68.40;;;;;;10495702;28;20135;-33
2023/09/12 20:57:17;;;;;;;3.63;1.67;;;29.70;68.50;;;;;;10499928;28;20060;-41
2023/09/12 21:02:19;;;;;;;4.22;2.00;;;29.70;68.50;;;;;;10490669;28;20106;-35
2023/09/12 21:07:21;;;;;;;7.80;2.50;;;29.70;68.60;;;;;;10486979;28;20041;-38
2023/09/12 21:12:25;;;;;;;4.30;1.70;;;29.70;68.70;;;;;;10484451;28;20136;-36
2023/09/12 21:17:27;;;;;;;4.90;1.75;;;29.60;68.50;;;;;;10486270;28;20455;-33
2023/09/12 21:22:29;;;;;;;3.13;1.80;;;29.60;68.70;;;;;;10501721;28;20049;-38
2023/09/12 21:27:32;;;;;;;3.67;2.45;;;29.60;68.60;;;;;;10501524;28;20103;-32
2023/09/12 21:32:34;;;;;;;2.25;1.35;;;29.50;68.70;;;;;;10491654;28;20048;-35
2023/09/12 21:37:36;;;;;;;6.15;1.67;;;29.50;68.80;;;;;;10500763;28;20093;-33
2023/09/12 21:42:39;;;;;;;4.45;1.77;;;29.50;68.90;;;;;;10469860;28;20135;-31
2023/09/12 21:47:42;;;;;;;4.90;1.70;;;29.50;69.00;;;;;;10478164;28;20554;-37
2023/09/12 21:52:44;;;;;;;4.18;1.65;;;29.50;69.00;;;;;;10502576;28;20110;-34
2023/09/12 21:57:47;;;;;;;4.97;2.20;;;29.50;69.00;;;;;;10489467;28;20097;-41
2023/09/12 22:02:50;;;;;;;5.15;1.60;;;29.50;69.10;;;;;;10485351;28;20084;-36
2023/09/12 22:07:52;;;;;;;3.88;1.65;;;29.40;69.10;;;;;;10492971;28;20066;-32
2023/09/12 22:12:55;;;;;;;2.58;1.55;;;29.40;69.10;;;;;;10484423;28;20088;-36
2023/09/12 22:17:57;;;;;;;8.63;1.80;;;29.40;69.30;;;;;;10472201;28;20469;-35
2023/09/12 22:22:59;;;;;;;2.92;1.60;;;29.40;69.30;;;;;;10482248;28;20098;-33
2023/09/12 22:28:02;;;;;;;5.55;1.38;;;29.40;69.30;;;;;;10472935;28;20612;-35
2023/09/12 22:33:05;;;;;;;5.85;1.25;;;29.30;69.40;;;;;;10484597;28;20135;-35
2023/09/12 22:38:07;;;;;;;2.40;1.25;;;29.30;69.50;;;;;;10487751;28;20055;-39
2023/09/12 22:43:10;;;;;;;3.90;1.40;;;29.30;69.40;;;;;;10496216;28;20090;-35
2023/09/12 22:48:15;;;;;;;2.60;1.17;;;29.30;69.60;;;;;;10465495;28;20114;-34
2023/09/12 22:53:17;;;;;;;2.53;1.20;;;29.30;69.60;;;;;;10479409;28;20454;-35
2023/09/12 22:58:20;;;;;;;2.50;1.00;;;29.30;69.70;;;;;;10476969;28;20079;-34
2023/09/12 23:03:22;;;;;;;2.20;1.08;;;29.30;69.70;;;;;;10493836;28;20121;-39
2023/09/12 23:08:23;;;;;;;2.88;1.15;;;29.20;69.70;;;;;;10495604;28;20451;-35
2023/09/12 23:13:26;;;;;;;4.22;1.13;;;29.20;69.90;;;;;;10468113;28;20180;-33
2023/09/12 23:18:28;;;;;;;3.38;1.10;;;29.20;69.80;;;;;;10469438;28;20565;-35
2023/09/12 23:23:30;;;;;;;3.45;1.30;;;29.20;69.90;;;;;;10480320;28;20130;-42
2023/09/12 23:28:33;;;;;;;2.97;0.90;;;29.20;69.90;;;;;;10468983;28;20087;-35
2023/09/12 23:33:35;;;;;;;4.75;0.90;;;29.20;70.60;;;;;;10488249;28;20106;-34
2023/09/12 23:38:37;;;;;;;3.40;1.20;;;29.10;69.90;;;;;;10471031;28;20076;-34
2023/09/12 23:43:41;;;;;;;5.55;1.02;;;29.10;70.00;;;;;;10492573;28;20053;-35
2023/09/12 23:48:43;;;;;;;2.35;0.88;;;29.10;70.10;;;;;;10477904;28;20056;-36
2023/09/12 23:53:45;;;;;;;2.53;0.98;;;29.10;70.10;;;;;;10503074;28;20045;-39
2023/09/12 23:58:48;;;;;;;1.38;0.75;;;29.10;70.80;;;;;;10488163;28;20119;-34
